Time;durP1;ratioP1;P1;durP2;ratioP2;P2;SDS_P1;SDS_P2;PMS_P1;PMS_P2;Temp;Humidity;BMP_temperature;BMP_pressure;BME280_temperature;BME280_humidity;BME280_pressure;Samples;Min_cycle;Max_cycle;Signal;HPM_P1;HPM_P2
2022/07/29 00:00:07;;;;;;;9.90;9.00;;;21.50;99.90;;;;;;5096103;28;20479;-66
2022/07/29 00:02:34;;;;;;;9.27;8.47;;;21.50;99.90;;;;;;5095961;28;20516;-67
2022/07/29 00:05:01;;;;;;;9.20;8.50;;;21.60;99.90;;;;;;5095944;28;20503;-67
2022/07/29 00:07:30;;;;;;;9.50;8.70;;;21.60;99.90;;;;;;5095158;28;20479;-67
2022/07/29 00:09:56;;;;;;;8.70;8.00;;;21.50;99.90;;;;;;5096041;28;20862;-67
2022/07/29 00:12:25;;;;;;;9.40;8.70;;;21.50;99.90;;;;;;5096005;28;20479;-68
2022/07/29 00:14:52;;;;;;;9.53;8.73;;;21.60;99.90;;;;;;5095602;28;20473;-67
2022/07/29 00:17:19;;;;;;;10.00;9.00;;;21.70;99.90;;;;;;5095936;28;20574;-67
2022/07/29 00:19:46;;;;;;;9.37;8.60;;;21.50;99.90;;;;;;5096063;28;20518;-67
2022/07/29 00:22:13;;;;;;;10.10;9.10;;;21.60;99.90;;;;;;5095756;28;20470;-67
2022/07/29 00:24:41;;;;;;;9.50;8.80;;;21.60;99.90;;;;;;5095264;28;20496;-67
2022/07/29 00:27:08;;;;;;;9.40;8.70;;;21.60;99.90;;;;;;5095728;28;20445;-67
2022/07/29 00:29:35;;;;;;;9.20;8.50;;;21.70;99.90;;;;;;5095570;28;20487;-67
2022/07/29 00:32:02;;;;;;;9.00;8.30;;;21.70;99.90;;;;;;5095784;28;20475;-67
2022/07/29 00:37:13;;;;;;;8.70;8.00;;;21.70;99.90;;;;;;5095357;28;21026;-67
2022/07/29 00:39:41;;;;;;;10.27;9.37;;;21.80;99.90;;;;;;5095407;28;20523;-67
2022/07/29 00:42:09;;;;;;;10.13;9.33;;;21.70;99.90;;;;;;5095326;28;20444;-67
2022/07/29 00:44:38;;;;;;;9.80;9.00;;;21.60;99.90;;;;;;5095096;28;20463;-67
2022/07/29 00:47:05;;;;;;;9.80;9.00;;;21.60;99.90;;;;;;5095089;28;20968;-67
2022/07/29 00:49:32;;;;;;;10.13;9.13;;;21.60;99.90;;;;;;5095550;28;20447;-67
2022/07/29 00:51:59;;;;;;;10.13;9.20;;;21.60;99.90;;;;;;5095129;28;20475;-67
2022/07/29 00:54:26;;;;;;;10.30;9.43;;;21.50;99.90;;;;;;5094719;28;20506;-67
2022/07/29 00:56:54;;;;;;;9.30;8.50;;;21.60;99.90;;;;;;5095257;28;20483;-67
2022/07/29 00:59:21;;;;;;;10.37;9.37;;;21.60;99.90;;;;;;5095083;28;20481;-67
2022/07/29 01:01:48;;;;;;;10.13;9.33;;;21.50;99.90;;;;;;5095014;28;20476;-67
2022/07/29 01:04:15;;;;;;;9.20;8.50;;;21.50;99.90;;;;;;5094671;28;20493;-67
2022/07/29 01:06:43;;;;;;;9.10;8.40;;;21.50;99.90;;;;;;5094949;28;20470;-67
2022/07/29 01:09:11;;;;;;;8.93;8.23;;;21.60;99.90;;;;;;5094853;28;20448;-68
2022/07/29 01:11:39;;;;;;;9.77;8.87;;;21.70;99.90;;;;;;5094792;28;20803;-68
2022/07/29 01:14:09;;;;;;;9.60;8.87;;;21.60;99.90;;;;;;5094573;28;20479;-67
2022/07/29 01:16:41;;;;;;;9.10;8.40;;;21.50;99.90;;;;;;5094457;28;20507;-68
2022/07/29 01:19:20;;;;;;;9.00;8.30;;;21.50;99.90;;;;;;5094568;28;20467;-67
2022/07/29 01:21:54;;;;;;;9.50;8.70;;;21.50;99.90;;;;;;5094727;28;20446;-67
2022/07/29 01:24:57;;;;;;;8.70;8.00;;;21.60;99.90;;;;;;5094352;28;20494;-67
2022/07/29 01:27:39;;;;;;;9.00;8.20;;;21.70;99.90;;;;;;5094568;28;20951;-67
2022/07/29 01:30:08;;;;;;;9.37;8.60;;;21.50;99.90;;;;;;5094469;28;20475;-67
2022/07/29 01:32:37;;;;;;;8.10;7.40;;;21.40;99.90;;;;;;5094466;28;20581;-67
2022/07/29 01:35:08;;;;;;;8.80;8.10;;;21.40;99.90;;;;;;5094147;28;20878;-67
2022/07/29 01:37:40;;;;;;;9.10;8.40;;;21.40;99.90;;;;;;5094351;28;20496;-67
2022/07/29 01:40:14;;;;;;;9.00;8.30;;;21.40;99.90;;;;;;5094274;28;20443;-67
2022/07/29 01:42:45;;;;;;;9.40;8.20;;;21.30;99.90;;;;;;5094292;28;20472;-67
2022/07/29 01:45:18;;;;;;;7.90;7.40;;;21.30;99.90;;;;;;5094349;28;20499;-67
2022/07/29 01:47:54;;;;;;;9.00;8.30;;;21.30;99.90;;;;;;5094227;28;20471;-67
2022/07/29 01:50:27;;;;;;;7.73;7.13;;;21.30;99.90;;;;;;5094222;28;20497;-67
2022/07/29 01:52:59;;;;;;;8.50;7.90;;;21.40;99.90;;;;;;5094167;28;20944;-67
2022/07/29 01:55:30;;;;;;;8.50;7.80;;;21.40;99.90;;;;;;5093934;28;20893;-67
2022/07/29 01:57:58;;;;;;;8.07;7.37;;;21.30;99.90;;;;;;5094246;28;20475;-68
2022/07/29 02:00:28;;;;;;;7.73;7.23;;;21.30;99.90;;;;;;5094141;28;20440;-67
2022/07/29 02:02:56;;;;;;;7.07;6.57;;;21.20;99.90;;;;;;5093996;28;20880;-67
2022/07/29 02:05:24;;;;;;;7.70;7.10;;;21.10;99.90;;;;;;5093498;28;20499;-67
2022/07/29 02:07:53;;;;;;;7.90;7.20;;;21.00;99.90;;;;;;5093883;28;20475;-67
2022/07/29 02:10:33;;;;;;;7.97;7.37;;;20.90;99.90;;;;;;5093890;28;20444;-67
2022/07/29 02:13:01;;;;;;;7.70;7.10;;;20.90;99.90;;;;;;5093793;28;20990;-67
2022/07/29 02:15:33;;;;;;;8.07;7.40;;;20.80;99.90;;;;;;5093352;28;20510;-68
2022/07/29 02:18:03;;;;;;;7.70;7.10;;;20.80;99.90;;;;;;5093493;28;21099;-67
2022/07/29 02:20:31;;;;;;;8.33;7.63;;;20.70;99.90;;;;;;5093826;28;20451;-68
2022/07/29 02:22:59;;;;;;;7.73;7.10;;;20.70;99.90;;;;;;5093995;28;20480;-68
2022/07/29 02:25:27;;;;;;;7.33;6.73;;;20.60;99.90;;;;;;5093286;28;20506;-67
2022/07/29 02:27:56;;;;;;;7.70;7.00;;;20.60;99.90;;;;;;5093784;28;20532;-67
2022/07/29 02:30:24;;;;;;;7.70;7.10;;;20.60;99.90;;;;;;5093972;28;20536;-67
2022/07/29 02:32:54;;;;;;;7.43;6.83;;;20.50;99.90;;;;;;5097866;28;20442;-67
2022/07/29 02:35:22;;;;;;;7.50;6.70;;;20.50;99.90;;;;;;5097344;28;20968;-67
2022/07/29 02:38:49;;;;;;;7.07;6.57;;;20.40;99.90;;;;;;5097681;28;20577;-67
2022/07/29 02:40:40;;;;;;;7.87;7.17;;;20.40;99.90;;;;;;5097295;28;20492;-67
2022/07/29 02:43:08;;;;;;;7.50;6.90;;;20.30;99.90;;;;;;5098080;28;20481;-67
2022/07/29 02:45:35;;;;;;;7.77;7.00;;;20.30;99.90;;;;;;5097308;28;20500;-67
2022/07/29 02:48:10;;;;;;;7.47;6.87;;;20.30;99.90;;;;;;5097560;28;20437;-67
2022/07/29 02:50:43;;;;;;;6.67;6.10;;;20.30;99.90;;;;;;5097592;28;20865;-67
2022/07/29 02:53:16;;;;;;;6.87;6.27;;;20.40;99.90;;;;;;5097242;28;20519;-67
2022/07/29 02:55:47;;;;;;;7.37;6.87;;;20.50;99.90;;;;;;5097042;28;20506;-68
2022/07/29 02:58:20;;;;;;;11.47;10.37;;;20.60;99.90;;;;;;5097593;28;20475;-67
2022/07/29 03:00:48;;;;;;;7.27;6.67;;;20.70;99.90;;;;;;5097440;28;20470;-67
2022/07/29 03:03:19;;;;;;;6.97;6.47;;;20.70;99.90;;;;;;5097298;28;20442;-67
2022/07/29 03:05:46;;;;;;;7.90;7.30;;;20.70;99.90;;;;;;5096837;28;20498;-67
2022/07/29 03:08:15;;;;;;;7.87;7.17;;;20.80;99.90;;;;;;5097244;28;20477;-68
2022/07/29 03:10:45;;;;;;;7.17;6.57;;;20.70;99.90;;;;;;5097174;28;20518;-67
2022/07/29 03:13:13;;;;;;;6.87;6.37;;;20.80;99.90;;;;;;5097143;28;20471;-67
2022/07/29 03:15:40;;;;;;;9.17;8.37;;;20.70;99.90;;;;;;5096640;28;20502;-67
2022/07/29 03:18:08;;;;;;;9.70;8.90;;;20.80;99.90;;;;;;5096913;28;20517;-67
2022/07/29 03:20:37;;;;;;;9.70;8.93;;;20.80;99.90;;;;;;5096992;28;20516;-68
2022/07/29 03:23:04;;;;;;;10.00;9.20;;;20.90;99.90;;;;;;5096944;28;20843;-67
2022/07/29 03:25:31;;;;;;;10.70;9.80;;;20.90;99.90;;;;;;5096837;28;20473;-67
2022/07/29 03:27:58;;;;;;;10.43;9.43;;;20.80;99.90;;;;;;5096857;28;20787;-68
2022/07/29 03:30:25;;;;;;;10.53;9.50;;;20.80;99.90;;;;;;5096751;28;20472;-68
2022/07/29 03:32:53;;;;;;;10.37;9.47;;;20.90;99.90;;;;;;5096462;28;20447;-67
2022/07/29 03:35:20;;;;;;;9.70;8.90;;;20.90;99.90;;;;;;5096511;28;20494;-67
2022/07/29 03:37:48;;;;;;;10.03;9.13;;;20.90;99.90;;;;;;5096460;28;20511;-67
2022/07/29 03:40:20;;;;;;;9.23;8.60;;;21.00;99.90;;;;;;5096634;28;20530;-67
2022/07/29 03:42:49;;;;;;;9.27;8.47;;;21.00;99.90;;;;;;5095385;28;20466;-67
2022/07/29 03:45:20;;;;;;;9.73;8.93;;;21.00;99.90;;;;;;5096138;28;20553;-67
2022/07/29 03:47:51;;;;;;;9.20;8.40;;;20.90;99.90;;;;;;5096598;28;20637;-67
2022/07/29 03:50:20;;;;;;;9.77;8.87;;;21.00;99.90;;;;;;5096472;28;20454;-68
2022/07/29 03:52:49;;;;;;;8.33;7.63;;;21.10;99.90;;;;;;5096193;28;20482;-67
2022/07/29 03:55:17;;;;;;;8.57;7.87;;;21.10;99.90;;;;;;5095903;28;20467;-67
2022/07/29 03:57:45;;;;;;;7.63;7.00;;;21.10;99.90;;;;;;5096200;28;20578;-67
2022/07/29 04:00:13;;;;;;;8.13;7.43;;;21.10;99.90;;;;;;5096246;28;20440;-67
2022/07/29 04:02:44;;;;;;;8.00;7.40;;;21.10;99.90;;;;;;5096062;28;20475;-68
2022/07/29 04:05:13;;;;;;;8.00;7.40;;;21.10;99.90;;;;;;5095825;28;20471;-67
2022/07/29 04:07:40;;;;;;;8.27;7.57;;;21.10;99.90;;;;;;5096153;28;20439;-67
2022/07/29 04:10:09;;;;;;;8.70;8.00;;;21.00;99.90;;;;;;5095970;28;20526;-67
2022/07/29 04:12:36;;;;;;;7.67;7.07;;;21.00;99.90;;;;;;5096010;28;20439;-67
2022/07/29 04:15:03;;;;;;;7.40;6.70;;;21.10;99.90;;;;;;5095803;28;20455;-68
2022/07/29 04:17:30;;;;;;;7.33;6.73;;;21.10;99.90;;;;;;5096096;28;20574;-67
2022/07/29 04:19:56;;;;;;;8.03;7.43;;;21.10;99.90;;;;;;5095798;28;20539;-67
2022/07/29 04:22:23;;;;;;;8.47;7.77;;;21.10;99.90;;;;;;5095792;28;20550;-67
2022/07/29 04:24:50;;;;;;;6.83;6.13;;;21.20;99.90;;;;;;5095650;28;20550;-68
2022/07/29 04:27:18;;;;;;;7.17;6.47;;;21.20;99.90;;;;;;5095899;28;20471;-67
2022/07/29 04:29:45;;;;;;;6.83;6.33;;;21.10;99.90;;;;;;5095634;28;20443;-67
2022/07/29 04:32:12;;;;;;;7.10;6.50;;;20.90;99.90;;;;;;5095588;28;20482;-67
2022/07/29 04:34:39;;;;;;;6.73;6.23;;;20.70;99.90;;;;;;5095195;28;20553;-67
2022/07/29 04:37:06;;;;;;;7.10;6.50;;;20.70;99.90;;;;;;5095477;28;20442;-67
2022/07/29 04:39:33;;;;;;;7.30;6.70;;;20.60;99.90;;;;;;5095234;28;20535;-67
2022/07/29 04:41:59;;;;;;;7.47;6.97;;;20.60;99.90;;;;;;5095435;28;20527;-67
2022/07/29 04:44:28;;;;;;;7.23;6.73;;;20.60;99.90;;;;;;5095091;28;20554;-67
2022/07/29 04:46:55;;;;;;;8.37;7.50;;;20.40;99.90;;;;;;5095373;28;20805;-67
2022/07/29 04:49:22;;;;;;;7.83;7.20;;;20.30;99.90;;;;;;5095137;28;20537;-67
2022/07/29 04:51:49;;;;;;;7.80;7.10;;;20.20;99.90;;;;;;5095276;28;20528;-67
2022/07/29 04:54:15;;;;;;;7.30;6.50;;;20.20;99.90;;;;;;5094360;28;20456;-67
2022/07/29 04:56:42;;;;;;;7.90;7.30;;;20.30;99.90;;;;;;5095157;28;20543;-67
2022/07/29 04:59:09;;;;;;;8.60;7.90;;;20.40;99.90;;;;;;5095079;28;20565;-68
2022/07/29 05:01:37;;;;;;;8.30;7.50;;;20.40;99.90;;;;;;5095049;28;20795;-67
2022/07/29 05:04:05;;;;;;;9.40;8.60;;;20.60;99.90;;;;;;5094743;28;20533;-67
2022/07/29 05:06:31;;;;;;;8.57;7.87;;;20.70;99.90;;;;;;5094953;28;21017;-67
2022/07/29 05:08:58;;;;;;;7.83;7.23;;;20.80;99.90;;;;;;5094720;28;20534;-68
2022/07/29 05:11:25;;;;;;;6.27;5.80;;;20.90;99.90;;;;;;5094850;28;20526;-67
2022/07/29 05:13:52;;;;;;;7.23;6.63;;;21.10;99.90;;;;;;5094612;28;20535;-68
2022/07/29 05:16:19;;;;;;;6.97;6.47;;;21.10;99.90;;;;;;5094829;28;20878;-67
2022/07/29 05:18:47;;;;;;;7.00;6.50;;;21.10;99.90;;;;;;5094636;28;20555;-67
2022/07/29 05:21:14;;;;;;;6.63;6.10;;;21.00;99.90;;;;;;5094649;28;20808;-67
2022/07/29 05:23:41;;;;;;;6.77;6.27;;;21.00;99.90;;;;;;5094350;28;20530;-68
2022/07/29 05:26:08;;;;;;;7.00;6.40;;;21.00;99.90;;;;;;5094588;28;20551;-67
2022/07/29 05:28:35;;;;;;;6.57;6.17;;;21.10;99.90;;;;;;5094507;28;20518;-67
2022/07/29 05:31:02;;;;;;;6.80;6.30;;;21.30;99.90;;;;;;5094487;28;20459;-67
2022/07/29 05:33:28;;;;;;;7.03;6.33;;;21.40;99.90;;;;;;5094668;28;20534;-67
2022/07/29 05:35:57;;;;;;;6.13;5.73;;;21.30;99.90;;;;;;5094246;28;20895;-67
2022/07/29 05:38:24;;;;;;;6.13;5.53;;;21.30;99.90;;;;;;5094026;28;20566;-67
2022/07/29 05:40:51;;;;;;;6.00;5.60;;;21.40;99.90;;;;;;5094281;28;20534;-67
2022/07/29 05:43:17;;;;;;;6.13;5.60;;;21.60;99.90;;;;;;5094378;28;20436;-67
2022/07/29 05:45:44;;;;;;;5.40;5.00;;;21.70;99.90;;;;;;5093717;28;20547;-67
2022/07/29 05:48:11;;;;;;;5.70;5.30;;;21.70;99.90;;;;;;5093898;28;20538;-67
2022/07/29 05:50:38;;;;;;;5.73;5.33;;;21.70;99.90;;;;;;5094184;28;20471;-67
2022/07/29 05:53:07;;;;;;;5.00;4.60;;;21.60;99.90;;;;;;5093976;28;20894;-67
2022/07/29 05:55:33;;;;;;;4.90;4.60;;;21.50;99.90;;;;;;5093974;28;20550;-67
2022/07/29 05:58:00;;;;;;;5.70;5.30;;;21.50;99.90;;;;;;5094018;28;20814;-67
2022/07/29 06:00:27;;;;;;;5.37;4.97;;;21.60;99.90;;;;;;5094035;28;20527;-67
2022/07/29 06:02:54;;;;;;;4.50;4.20;;;21.70;99.90;;;;;;5094672;28;20543;-67
2022/07/29 06:05:21;;;;;;;4.30;4.00;;;21.70;99.90;;;;;;5093032;28;20472;-67
2022/07/29 06:07:48;;;;;;;5.20;4.80;;;21.70;99.90;;;;;;5094281;28;20530;-67
2022/07/29 06:10:16;;;;;;;4.47;4.17;;;21.70;99.90;;;;;;5093859;28;20539;-67
2022/07/29 06:12:43;;;;;;;4.73;4.43;;;21.70;99.90;;;;;;5093849;28;20527;-67
2022/07/29 06:15:10;;;;;;;7.20;6.50;;;21.80;99.90;;;;;;5093505;28;20883;-67
2022/07/29 06:17:37;;;;;;;5.80;5.20;;;21.90;99.90;;;;;;5093478;28;20531;-67
2022/07/29 06:20:05;;;;;;;5.40;5.00;;;22.10;99.90;;;;;;5093561;28;20575;-67
2022/07/29 06:22:32;;;;;;;5.20;4.70;;;22.10;99.90;;;;;;5093923;28;20471;-67
2022/07/29 06:24:59;;;;;;;5.03;4.63;;;22.20;99.90;;;;;;5093453;28;20551;-67
2022/07/29 06:27:27;;;;;;;5.33;4.80;;;22.20;99.90;;;;;;5093840;28;20532;-67
2022/07/29 06:29:54;;;;;;;5.40;5.00;;;22.30;99.90;;;;;;5093765;28;20528;-67
2022/07/29 06:32:21;;;;;;;4.73;4.43;;;22.40;99.90;;;;;;5093682;28;20527;-67
2022/07/29 06:34:48;;;;;;;6.43;5.37;;;22.40;99.90;;;;;;5094085;28;20472;-67
2022/07/29 06:37:15;;;;;;;5.30;4.90;;;22.60;99.90;;;;;;5093724;28;20441;-67
2022/07/29 06:39:42;;;;;;;5.00;4.70;;;22.60;99.90;;;;;;5093545;28;20570;-67
2022/07/29 06:42:09;;;;;;;5.30;4.90;;;22.70;99.90;;;;;;5093494;28;20536;-68
2022/07/29 06:44:37;;;;;;;5.93;5.50;;;22.80;99.90;;;;;;5093969;28;20529;-68
2022/07/29 06:47:04;;;;;;;6.60;6.20;;;22.90;99.90;;;;;;5093571;28;20452;-67
2022/07/29 06:49:31;;;;;;;6.03;5.63;;;23.00;99.90;;;;;;5093434;28;20528;-67
2022/07/29 06:51:58;;;;;;;7.00;6.40;;;23.10;99.90;;;;;;5093580;28;20536;-67
2022/07/29 06:54:25;;;;;;;6.30;5.80;;;23.10;99.90;;;;;;5093276;28;20480;-68
2022/07/29 06:56:52;;;;;;;6.17;5.77;;;23.20;99.90;;;;;;5093472;28;20845;-68
2022/07/29 06:59:19;;;;;;;7.10;6.50;;;23.20;99.90;;;;;;5093410;28;20553;-68
2022/07/29 07:01:47;;;;;;;6.70;6.20;;;23.30;99.90;;;;;;5093201;28;20532;-67
2022/07/29 07:04:14;;;;;;;6.50;5.90;;;23.30;99.90;;;;;;5093289;28;20452;-68
2022/07/29 07:06:41;;;;;;;6.83;6.23;;;23.40;99.90;;;;;;5093450;28;20533;-68
2022/07/29 07:09:08;;;;;;;6.60;6.10;;;23.50;99.90;;;;;;5093281;28;20523;-68
2022/07/29 07:11:35;;;;;;;5.90;5.50;;;23.60;99.90;;;;;;5093297;28;20991;-67
2022/07/29 07:14:01;;;;;;;7.33;6.63;;;23.70;99.90;;;;;;5093143;28;20453;-68
2022/07/29 07:16:28;;;;;;;6.90;6.30;;;23.80;99.90;;;;;;5094223;28;20442;-68
2022/07/29 07:18:56;;;;;;;6.90;6.40;;;23.90;99.90;;;;;;5096847;28;21068;-67
2022/07/29 07:21:23;;;;;;;6.23;5.80;;;23.90;99.90;;;;;;5097214;28;20809;-68
2022/07/29 07:23:50;;;;;;;6.83;6.33;;;24.00;99.90;;;;;;5096885;28;20439;-68
2022/07/29 07:26:17;;;;;;;6.37;5.97;;;24.20;99.90;;;;;;5097487;28;20509;-68
2022/07/29 07:28:44;;;;;;;7.07;6.57;;;24.30;99.90;;;;;;5096891;28;20526;-67
2022/07/29 07:31:11;;;;;;;6.80;6.30;;;24.40;99.90;;;;;;5096908;28;20529;-67
2022/07/29 07:33:38;;;;;;;6.40;5.90;;;24.60;99.90;;;;;;5096720;28;20975;-68
2022/07/29 07:36:06;;;;;;;6.70;6.20;;;24.60;99.90;;;;;;5096267;28;20495;-67
2022/07/29 07:38:33;;;;;;;7.00;6.40;;;24.60;99.90;;;;;;5096565;28;20984;-68
2022/07/29 07:41:00;;;;;;;6.83;6.33;;;24.60;99.90;;;;;;5096676;28;20446;-68
2022/07/29 07:43:27;;;;;;;6.17;5.77;;;24.70;99.90;;;;;;5096602;28;20443;-67
2022/07/29 07:45:54;;;;;;;6.20;5.80;;;24.70;99.90;;;;;;5096305;28;20474;-67
2022/07/29 07:48:21;;;;;;;6.70;6.20;;;24.70;99.90;;;;;;5096486;28;20531;-67
2022/07/29 07:50:49;;;;;;;6.37;5.80;;;24.60;99.90;;;;;;5096501;28;20539;-67
2022/07/29 07:53:17;;;;;;;7.00;6.40;;;24.60;99.90;;;;;;5096248;28;20553;-67
2022/07/29 07:55:44;;;;;;;6.40;5.90;;;24.50;99.90;;;;;;5096193;28;20467;-67
2022/07/29 07:58:11;;;;;;;7.13;6.50;;;24.60;99.90;;;;;;5096084;28;20778;-68
2022/07/29 08:00:38;;;;;;;6.57;5.97;;;24.60;99.90;;;;;;5096289;28;20854;-67
2022/07/29 08:03:05;;;;;;;7.37;6.87;;;24.50;99.90;;;;;;5096233;28;20529;-68
2022/07/29 08:05:32;;;;;;;6.77;6.33;;;24.50;99.90;;;;;;5095699;28;20502;-68
2022/07/29 08:07:59;;;;;;;7.27;6.77;;;24.50;99.90;;;;;;5096144;28;20534;-67
2022/07/29 08:13:12;;;;;;;7.23;6.67;;;24.80;99.90;;;;;;5096090;28;20427;-67
2022/07/29 08:15:40;;;;;;;7.10;6.50;;;25.00;99.90;;;;;;5095910;28;20996;-67
2022/07/29 08:18:08;;;;;;;6.47;5.87;;;25.60;99.90;;;;;;5095783;28;20459;-67
2022/07/29 08:20:35;;;;;;;8.20;7.60;;;26.20;99.90;;;;;;5096002;28;20534;-67
2022/07/29 08:23:02;;;;;;;7.40;6.70;;;27.20;99.60;;;;;;5095824;28;20537;-67
2022/07/29 08:25:30;;;;;;;6.93;6.33;;;28.10;96.80;;;;;;5095853;28;20563;-67
2022/07/29 08:27:57;;;;;;;7.20;6.50;;;28.60;94.60;;;;;;5095347;28;20539;-67
2022/07/29 08:30:24;;;;;;;6.83;6.33;;;29.30;93.40;;;;;;5095560;28;20440;-67
2022/07/29 08:32:52;;;;;;;7.00;6.57;;;29.40;92.20;;;;;;5095672;28;20570;-67
2022/07/29 08:35:19;;;;;;;6.63;6.13;;;29.60;91.20;;;;;;5095540;28;20463;-68
2022/07/29 08:37:46;;;;;;;6.30;5.90;;;29.60;90.70;;;;;;5095457;28;20975;-67
2022/07/29 08:40:14;;;;;;;6.50;6.10;;;30.70;90.00;;;;;;5095405;28;20546;-67
2022/07/29 08:42:42;;;;;;;7.47;6.87;;;32.00;85.20;;;;;;5095544;28;20440;-68
2022/07/29 08:45:10;;;;;;;9.10;6.93;;;32.70;78.30;;;;;;5095049;28;20555;-67
2022/07/29 08:47:39;;;;;;;7.37;6.80;;;33.20;73.60;;;;;;5095499;28;20519;-68
2022/07/29 08:50:07;;;;;;;7.70;7.00;;;32.80;70.70;;;;;;5095260;28;20914;-67
2022/07/29 08:52:37;;;;;;;7.50;6.97;;;32.10;71.60;;;;;;5095324;28;20807;-67
2022/07/29 08:55:05;;;;;;;7.00;6.50;;;31.50;72.40;;;;;;5095053;28;20501;-67
2022/07/29 08:57:33;;;;;;;7.53;7.03;;;31.90;72.80;;;;;;5095289;28;20542;-67
2022/07/29 09:00:04;;;;;;;7.60;7.03;;;32.30;70.70;;;;;;5095191;28;20486;-67
2022/07/29 09:02:36;;;;;;;8.30;7.60;;;32.60;68.70;;;;;;5095282;28;20856;-68
2022/07/29 09:05:06;;;;;;;6.70;6.30;;;33.10;67.10;;;;;;5094888;28;20456;-68
2022/07/29 09:07:33;;;;;;;6.33;5.80;;;34.70;64.40;;;;;;5095035;28;20496;-68
2022/07/29 09:10:00;;;;;;;6.63;6.23;;;37.10;57.70;;;;;;5094970;28;20438;-66
2022/07/29 09:12:28;;;;;;;7.60;7.00;;;38.90;53.20;;;;;;5094790;28;20535;-66
2022/07/29 09:14:54;;;;;;;6.17;5.87;;;40.00;47.50;;;;;;5094689;28;20466;-66
2022/07/29 09:17:45;;;;;;;6.17;5.87;;;40.80;45.90;;;;;;5094824;28;20865;-66
2022/07/29 09:20:14;;;;;;;7.03;6.63;;;41.10;42.60;;;;;;5094746;28;20550;-66
2022/07/29 09:22:41;;;;;;;6.73;6.23;;;41.80;40.90;;;;;;5094576;28;20519;-66
2022/07/29 09:25:08;;;;;;;7.43;6.83;;;42.40;39.90;;;;;;5094423;28;20551;-66
2022/07/29 09:27:35;;;;;;;6.60;6.20;;;42.60;37.90;;;;;;5094334;28;20938;-66
2022/07/29 09:30:05;;;;;;;7.67;7.07;;;42.70;36.60;;;;;;5094763;28;20448;-66
2022/07/29 09:32:33;;;;;;;6.77;6.37;;;41.80;37.40;;;;;;5094566;28;20448;-66
2022/07/29 09:35:19;;;;;;;7.70;7.03;;;40.90;38.60;;;;;;5094146;28;20555;-66
2022/07/29 09:37:47;;;;;;;8.07;7.57;;;40.10;38.60;;;;;;5094447;28;20543;-66
2022/07/29 09:40:16;;;;;;;7.47;6.97;;;39.40;40.00;;;;;;5094495;28;20486;-66
2022/07/29 09:42:43;;;;;;;7.77;7.17;;;39.10;41.30;;;;;;5094161;28;20540;-66
2022/07/29 09:45:12;;;;;;;7.57;6.87;;;38.70;42.20;;;;;;5093858;28;20466;-66
2022/07/29 09:47:46;;;;;;;7.80;7.30;;;38.70;41.80;;;;;;5094262;28;20471;-66
2022/07/29 09:50:14;;;;;;;8.27;7.67;;;38.30;41.30;;;;;;5094254;28;20436;-66
2022/07/29 09:52:50;;;;;;;8.30;7.70;;;38.20;41.70;;;;;;5094079;28;20898;-66
2022/07/29 09:55:18;;;;;;;8.10;7.40;;;37.40;43.50;;;;;;5093807;28;20502;-66
2022/07/29 09:57:46;;;;;;;8.50;8.00;;;37.10;43.00;;;;;;5094141;28;20443;-68
2022/07/29 10:00:14;;;;;;;9.27;8.67;;;35.80;44.60;;;;;;5093854;28;20563;-68
2022/07/29 10:02:44;;;;;;;8.33;7.77;;;34.90;45.90;;;;;;5093842;28;20501;-68
2022/07/29 10:05:19;;;;;;;8.90;8.17;;;34.20;47.40;;;;;;5093865;28;20517;-68
2022/07/29 10:07:49;;;;;;;8.43;7.93;;;34.10;48.70;;;;;;5093991;28;20443;-68
2022/07/29 10:10:23;;;;;;;8.80;8.10;;;33.80;49.20;;;;;;5093872;28;20523;-68
2022/07/29 10:12:53;;;;;;;8.83;8.10;;;33.00;49.80;;;;;;5093872;28;20529;-68
2022/07/29 10:15:23;;;;;;;8.90;8.20;;;32.10;51.40;;;;;;5094010;28;20562;-67
2022/07/29 10:17:50;;;;;;;9.37;8.77;;;31.30;53.30;;;;;;5094003;28;20467;-68
2022/07/29 10:20:17;;;;;;;9.80;9.00;;;30.40;55.00;;;;;;5093801;28;20929;-67
2022/07/29 10:22:46;;;;;;;9.43;8.83;;;30.10;56.40;;;;;;5093843;28;20528;-67
2022/07/29 10:25:15;;;;;;;9.50;8.90;;;29.80;57.10;;;;;;5093360;28;20468;-67
2022/07/29 10:27:42;;;;;;;9.87;9.00;;;29.30;57.80;;;;;;5093796;28;20449;-68
2022/07/29 10:30:11;;;;;;;9.50;8.70;;;28.80;59.50;;;;;;5093505;28;20847;-67
2022/07/29 10:33:06;;;;;;;9.43;8.73;;;28.40;60.50;;;;;;5093737;28;20519;-68
2022/07/29 10:35:58;;;;;;;9.50;8.73;;;28.20;62.60;;;;;;5093345;28;20729;-67
2022/07/29 10:38:46;;;;;;;13.63;9.73;;;27.90;63.10;;;;;;5093917;28;20845;-67
2022/07/29 10:41:34;;;;;;;9.80;8.90;;;27.60;65.40;;;;;;5093397;28;20480;-68
2022/07/29 10:44:04;;;;;;;10.10;9.30;;;27.40;66.90;;;;;;5094067;28;20562;-68
2022/07/29 10:46:36;;;;;;;12.23;11.20;;;27.10;72.30;;;;;;5093518;28;20527;-68
2022/07/29 10:49:09;;;;;;;12.87;11.70;;;26.40;87.70;;;;;;5093619;28;20925;-68
2022/07/29 10:52:10;;;;;;;14.67;13.30;;;25.70;97.70;;;;;;5094385;28;20485;-68
2022/07/29 10:54:46;;;;;;;14.80;13.50;;;25.40;99.90;;;;;;5086088;28;20983;-69
2022/07/29 10:57:21;;;;;;;15.40;13.90;;;25.30;99.90;;;;;;5097854;28;20447;-70
2022/07/29 10:59:49;;;;;;;15.93;14.40;;;25.00;99.90;;;;;;5097720;28;20821;-69
